createdAt,value
2023-05-18T00:06:23.277Z,5.70
2023-05-18T00:17:17.241Z,6.30
2023-05-18T01:19:32.620Z,5.60
2023-05-18T01:29:59.174Z,6.20
2023-05-18T01:40:33.307Z,5.30
2023-05-18T01:51:05.511Z,6.00
2023-05-18T02:14:52.971Z,6.90
2023-05-18T02:25:18.978Z,6.20
2023-05-18T02:35:33.856Z,6.30
2023-05-18T02:46:04.759Z,5.70
2023-05-18T03:08:00.626Z,5.60
2023-05-18T03:19:05.149Z,4.90
2023-05-18T03:29:42.387Z,5.10
2023-05-18T03:40:21.101Z,3.10
2023-05-18T03:50:36.226Z,3.80
2023-05-18T04:00:59.633Z,2.60
2023-05-18T04:12:02.838Z,3.30
2023-05-18T04:22:31.610Z,2.90
2023-05-18T04:33:00.565Z,2.40
2023-05-18T04:43:42.223Z,2.30
2023-05-18T04:54:11.371Z,2.60
2023-05-18T05:26:50.962Z,2.10
2023-05-18T05:49:12.732Z,2.80
2023-05-18T06:11:38.822Z,1.90
2023-05-18T06:22:33.048Z,1.60
2023-05-18T06:32:58.143Z,1.70
2023-05-18T06:43:01.883Z,2.00
2023-05-18T06:53:18.982Z,4.80
2023-05-18T07:03:26.137Z,4.00
2023-05-18T07:13:31.496Z,2.00
2023-05-18T07:23:37.649Z,1.70
2023-05-18T07:33:42.559Z,1.80
2023-05-18T07:43:46.149Z,2.30
2023-05-18T07:53:52.338Z,0.60
2023-05-18T08:03:57.220Z,3.00
2023-05-18T08:14:01.199Z,1.50
2023-05-18T08:24:08.483Z,2.20
2023-05-18T08:34:12.731Z,1.00
2023-05-18T08:44:21.826Z,1.10
2023-05-18T08:54:26.594Z,1.50
2023-05-18T09:04:37.749Z,1.00
2023-05-18T09:14:43.885Z,2.00
2023-05-18T09:24:49.128Z,2.80
2023-05-18T09:34:55.679Z,1.90
2023-05-18T09:44:59.312Z,1.70
2023-05-18T09:55:06.558Z,2.40
2023-05-18T10:05:23.224Z,1.60
2023-05-18T10:15:28.538Z,1.30
2023-05-18T10:25:33.648Z,1.20
2023-05-18T10:35:40.086Z,1.70
2023-05-18T10:45:49.838Z,2.60
2023-05-18T10:55:54.812Z,1.30
2023-05-18T11:06:05.263Z,1.20
2023-05-18T11:16:10.552Z,0.80
2023-05-18T11:26:16.656Z,2.30
2023-05-18T11:36:26.675Z,1.50
2023-05-18T11:46:30.309Z,1.50
2023-05-18T11:56:34.191Z,2.10
2023-05-18T12:06:40.153Z,2.30
2023-05-18T12:16:46.573Z,2.60
2023-05-18T12:26:51.467Z,1.40
2023-05-18T12:36:56.258Z,1.50
2023-05-18T12:47:02.402Z,1.60
2023-05-18T12:57:10.234Z,2.20
2023-05-18T13:07:15.890Z,1.90
2023-05-18T13:17:23.358Z,2.00
2023-05-18T13:27:29.984Z,3.50
2023-05-18T13:37:33.617Z,3.80
2023-05-18T13:47:37.288Z,4.00
2023-05-18T13:58:07.756Z,1.20
2023-05-18T14:19:54.305Z,1.90
2023-05-18T14:29:59.562Z,1.80
2023-05-18T14:40:04.756Z,4.30
2023-05-18T14:50:08.850Z,2.60
2023-05-18T15:00:15.344Z,3.60
2023-05-18T15:10:21.084Z,2.70
2023-05-18T15:20:26.502Z,2.30
2023-05-18T15:30:30.397Z,2.20
2023-05-18T15:40:34.294Z,1.20
2023-05-18T15:50:38.080Z,3.60
2023-05-18T16:00:41.644Z,3.50
2023-05-18T16:10:46.553Z,2.00
2023-05-18T16:20:50.088Z,1.50
2023-05-18T16:30:55.437Z,2.40
2023-05-18T16:40:58.977Z,1.70
2023-05-18T16:51:08.630Z,3.30
2023-05-18T17:01:23.529Z,4.50
2023-05-18T17:11:30.789Z,2.60
2023-05-18T17:21:34.478Z,2.70
2023-05-18T17:31:39.118Z,2.70
2023-05-18T17:53:56.900Z,4.50
2023-05-18T20:23:34.766Z,7.00
2023-05-18T20:45:15.432Z,5.10
2023-05-18T20:56:16.172Z,3.00
2023-05-18T21:07:25.809Z,3.50
2023-05-18T22:31:40.608Z,3.10
2023-05-18T22:41:53.925Z,4.30
2023-05-18T23:45:18.902Z,5.70
2023-05-18T23:55:54.652Z,5.10
